IND weather

Indianapolis International Airport
Indianapolis, Indiana, United States

Public forecast

Using degrees Fahrenheit for public forecast. Weather courtesy of forecast.io.

Current aviation weather report (METAR) for Indianapolis International Airport

Retrieved 2019/10/17 00:54 UTC (38 minutes ago):

KIND 170054Z 28013KT 10SM SCT045 BKN060 09/02 A3000 RMK AO2 SLP163 T00890017

Aviation forecast (TAF) for Indianapolis International Airport

Forecast is more than 6 hours old.

Retrieved 2019/10/16 18:22 UTC (7 hours ago):

TAF KIND 161720Z 1618/1724 30016G25KT P6SM OVC035 FM170000 30012KT P6SM BKN045 FM170300 29008KT P6SM BKN080 FM171000 30007KT P6SM SCT200